Time;durP1;ratioP1;P1;durP2;ratioP2;P2;SDS_P1;SDS_P2;PMS_P1;PMS_P2;Temp;Humidity;BMP_temperature;BMP_pressure;BME280_temperature;BME280_humidity;BME280_pressure;Samples;Min_cycle;Max_cycle;Signal;HPM_P1;HPM_P2
2021/12/25 00:00:25;;;;;;;199.17;98.83;;;;;;;0.59;83.73;99312.13;5092465;28;20472;-69
2021/12/25 00:02:52;;;;;;;203.90;102.60;;;;;;;0.51;84.51;99314.59;5092251;28;20441;-69
2021/12/25 00:05:20;;;;;;;190.10;96.47;;;;;;;0.61;85.42;99323.25;5092254;28;20489;-69
2021/12/25 00:07:47;;;;;;;185.30;94.67;;;;;;;0.71;85.09;99324.09;5092153;28;20429;-68
2021/12/25 00:10:14;;;;;;;178.27;92.60;;;;;;;0.76;84.31;99311.44;5092001;28;20504;-68
2021/12/25 00:12:42;;;;;;;187.93;93.83;;;;;;;0.72;83.53;99315.28;5092057;28;20485;-69
2021/12/25 00:15:09;;;;;;;194.43;96.80;;;;;;;0.74;83.16;99308.13;5091543;28;20439;-68
2021/12/25 00:17:36;;;;;;;186.97;90.77;;;;;;;0.78;83.40;99304.28;5092204;28;20490;-68
2021/12/25 00:20:04;;;;;;;188.70;93.77;;;;;;;0.78;83.17;99304.28;5092023;28;20479;-68
2021/12/25 00:22:30;;;;;;;186.37;95.17;;;;;;;0.81;83.44;99306.59;5091761;28;20859;-69
2021/12/25 00:24:58;;;;;;;190.63;94.03;;;;;;;0.79;83.08;99303.31;5091761;28;20932;-69
2021/12/25 00:27:46;;;;;;;188.83;94.80;;;;;;;0.80;83.00;99307.56;5092303;28;20433;-69
2021/12/25 00:30:22;;;;;;;191.83;93.83;;;;;;;0.45;84.52;99302.06;5092090;28;20445;-69
2021/12/25 00:32:54;;;;;;;184.07;92.63;;;;;;;0.31;85.23;99310.31;5092039;28;20425;-69
2021/12/25 00:35:22;;;;;;;178.17;93.53;;;;;;;0.41;85.26;99297.28;5092074;28;20494;-69
2021/12/25 00:37:49;;;;;;;185.60;92.87;;;;;;;0.47;85.08;99274.03;5091655;28;20816;-69
2021/12/25 00:40:17;;;;;;;196.13;99.53;;;;;;;0.61;85.19;99284.06;5092008;28;20525;-69
2021/12/25 00:42:44;;;;;;;197.90;101.20;;;;;;;0.62;85.40;99282.28;5091890;28;20443;-69
2021/12/25 00:45:11;;;;;;;192.23;99.13;;;;;;;0.72;85.06;99293.53;5091601;28;20952;-69
2021/12/25 00:47:39;;;;;;;199.83;102.17;;;;;;;0.71;84.94;99292.72;5091773;28;20441;-69
2021/12/25 00:50:07;;;;;;;200.40;100.07;;;;;;;0.78;84.52;99285.16;5092063;28;20569;-68
2021/12/25 00:52:34;;;;;;;185.40;95.83;;;;;;;0.76;84.21;99298.34;5091862;28;20437;-69
2021/12/25 00:55:04;;;;;;;179.87;94.77;;;;;;;0.81;84.74;99293.53;5091959;28;20493;-69
2021/12/25 00:57:30;;;;;;;193.87;94.60;;;;;;;0.81;83.47;99284.88;5091827;28;20448;-69
2021/12/25 00:59:57;;;;;;;204.70;98.90;;;;;;;0.87;83.90;99286.94;5091420;28;20545;-69
2021/12/25 01:02:24;;;;;;;184.37;95.53;;;;;;;0.85;82.93;99284.44;5091687;28;20445;-70
2021/12/25 01:04:52;;;;;;;186.43;94.63;;;;;;;0.79;82.51;99290.25;5091539;28;20821;-70
2021/12/25 01:07:19;;;;;;;185.47;92.77;;;;;;;0.57;83.55;99284.50;5091706;28;20557;-70
2021/12/25 01:09:45;;;;;;;178.80;93.13;;;;;;;0.66;84.34;99302.78;5091828;28;20497;-70
2021/12/25 01:12:12;;;;;;;186.33;93.90;;;;;;;0.71;83.91;99303.19;5091126;28;20474;-69
2021/12/25 01:14:44;;;;;;;181.77;93.20;;;;;;;0.60;84.12;99305.13;5091563;28;20506;-70
2021/12/25 01:17:30;;;;;;;182.60;91.90;;;;;;;0.65;84.93;99301.09;5091706;28;20804;-69
2021/12/25 01:20:27;;;;;;;197.50;97.60;;;;;;;0.53;84.38;99289.16;5091593;28;20499;-69
2021/12/25 01:25:55;;;;;;;176.03;92.60;;;;;;;0.60;84.09;99271.97;5090881;28;20439;-69
2021/12/25 01:31:20;;;;;;;194.23;93.87;;;;;;;0.65;83.64;99306.34;5095254;28;20429;-69
2021/12/25 01:39:44;;;;;;;176.97;87.27;;;;;;;0.54;84.29;99316.09;5070016;28;20429;-69
2021/12/25 01:47:47;;;;;;;202.40;94.77;;;;;;;0.45;84.84;99298.66;5073817;28;20426;-70
2021/12/25 01:50:15;;;;;;;285.37;117.30;;;;;;;0.54;84.35;99308.28;5094666;28;20528;-70
2021/12/25 01:52:43;;;;;;;305.83;131.57;;;;;;;0.43;84.21;99267.44;5094962;28;20438;-69
2021/12/25 01:55:14;;;;;;;206.80;98.03;;;;;;;0.63;83.64;99300.44;5094826;28;20436;-69
2021/12/25 01:57:41;;;;;;;186.93;88.70;;;;;;;0.70;84.37;99301.53;5095257;28;20486;-70
2021/12/25 02:00:14;;;;;;;198.50;96.83;;;;;;;0.76;84.23;99294.91;5094540;28;20991;-69
2021/12/25 02:02:41;;;;;;;188.50;92.03;;;;;;;0.84;83.94;99287.19;5094889;28;20429;-69
2021/12/25 02:05:08;;;;;;;226.83;104.63;;;;;;;0.84;83.61;99272.34;5094516;28;20433;-69
2021/12/25 02:07:35;;;;;;;271.00;116.77;;;;;;;0.88;83.77;99273.72;5094112;28;21014;-68
2021/12/25 02:10:05;;;;;;;273.93;119.90;;;;;;;0.87;83.31;99276.47;5094178;28;20951;-68
2021/12/25 02:12:33;;;;;;;216.07;98.37;;;;;;;0.63;83.56;99279.53;5094677;28;20490;-68
2021/12/25 02:15:04;;;;;;;188.93;94.20;;;;;;;0.55;84.69;99282.00;5094383;28;20437;-68
2021/12/25 02:17:48;;;;;;;190.83;94.73;;;;;;;0.68;85.26;99274.69;5094205;28;20925;-68
2021/12/25 02:20:23;;;;;;;195.77;92.67;;;;;;;0.81;84.67;99271.81;5094549;28;20465;-69
2021/12/25 02:22:54;;;;;;;190.87;93.20;;;;;;;0.85;84.22;99266.16;5094391;28;20486;-69
2021/12/25 02:25:22;;;;;;;210.23;96.50;;;;;;;0.91;83.82;99273.44;5095244;28;20430;-68
2021/12/25 02:27:48;;;;;;;213.00;97.93;;;;;;;0.86;82.87;99277.44;5094128;28;20860;-69
2021/12/25 02:30:15;;;;;;;255.13;120.57;;;;;;;0.81;83.33;99283.06;5093995;28;20494;-69
2021/12/25 02:32:44;;;;;;;231.97;103.37;;;;;;;0.71;83.46;99284.06;5094335;28;20431;-69
2021/12/25 02:35:11;;;;;;;207.77;101.03;;;;;;;0.76;83.20;99284.44;5093926;28;20962;-70
2021/12/25 02:37:39;;;;;;;218.20;102.97;;;;;;;0.72;82.70;99278.69;5093669;28;20876;-70
2021/12/25 02:40:08;;;;;;;212.23;104.03;;;;;;;0.74;82.72;99263.72;5094586;28;20480;-70
2021/12/25 02:42:35;;;;;;;197.53;98.13;;;;;;;0.71;82.68;99266.59;5094042;28;20441;-69
2021/12/25 02:45:03;;;;;;;178.57;87.97;;;;;;;0.73;83.54;99269.88;5093813;28;20859;-69
2021/12/25 02:47:30;;;;;;;168.50;82.80;;;;;;;0.82;83.66;99273.44;5093598;28;21004;-69
2021/12/25 02:49:58;;;;;;;177.53;90.17;;;;;;;0.87;83.58;99261.63;5094132;28;20444;-69
2021/12/25 02:52:26;;;;;;;178.07;89.27;;;;;;;0.71;84.16;99277.06;5093867;28;20498;-69
2021/12/25 02:54:54;;;;;;;172.93;87.43;;;;;;;0.73;84.67;99264.66;5094101;28;20493;-69
2021/12/25 02:57:21;;;;;;;171.90;89.63;;;;;;;0.80;84.50;99263.13;5093507;28;20462;-69
2021/12/25 02:59:47;;;;;;;177.70;91.60;;;;;;;0.88;84.16;99267.66;5093431;28;20936;-69
2021/12/25 03:02:17;;;;;;;177.83;91.57;;;;;;;0.95;83.98;99266.97;5093404;28;20477;-69
2021/12/25 03:04:48;;;;;;;184.30;91.43;;;;;;;1.02;83.22;99270.66;5093336;28;20464;-69
2021/12/25 03:07:15;;;;;;;193.60;98.97;;;;;;;0.89;83.08;99285.81;5093267;28;20459;-68
2021/12/25 03:09:43;;;;;;;222.73;111.37;;;;;;;0.52;83.64;99279.66;5093509;28;20441;-69
2021/12/25 03:12:14;;;;;;;211.73;111.30;;;;;;;0.48;84.78;99286.13;5093008;28;20948;-69
2021/12/25 03:15:03;;;;;;;206.93;103.53;;;;;;;0.60;85.19;99290.25;5093078;28;20494;-69
2021/12/25 03:17:30;;;;;;;193.13;96.83;;;;;;;0.63;84.21;99294.38;5093007;28;20441;-69
2021/12/25 03:19:57;;;;;;;190.70;96.53;;;;;;;0.58;84.17;99286.97;5093266;28;20434;-69
2021/12/25 03:22:24;;;;;;;189.43;93.60;;;;;;;0.71;84.30;99311.03;5093579;28;20437;-69
2021/12/25 03:24:50;;;;;;;178.67;93.17;;;;;;;0.73;83.81;99311.69;5093488;28;20486;-69
2021/12/25 03:27:19;;;;;;;180.63;89.47;;;;;;;0.46;84.44;99308.97;5093201;28;20789;-69
2021/12/25 03:29:45;;;;;;;171.17;86.87;;;;;;;0.43;85.02;99309.22;5092789;28;20502;-68
2021/12/25 03:32:12;;;;;;;176.67;89.53;;;;;;;0.55;85.89;99313.38;5092736;28;20948;-69
2021/12/25 03:34:39;;;;;;;211.97;107.57;;;;;;;0.64;85.21;99324.78;5092818;28;20505;-69
2021/12/25 03:37:06;;;;;;;183.70;90.10;;;;;;;0.71;85.24;99307.56;5092650;28;20494;-71
2021/12/25 03:39:33;;;;;;;190.00;94.73;;;;;;;0.61;84.35;99302.34;5092496;28;20439;-69
2021/12/25 03:42:00;;;;;;;186.43;92.73;;;;;;;0.63;84.57;99307.44;5092770;28;20472;-69
2021/12/25 03:44:29;;;;;;;183.27;90.20;;;;;;;0.66;84.38;99310.63;5092822;28;20429;-69
2021/12/25 03:47:00;;;;;;;195.60;103.87;;;;;;;0.63;84.07;99321.34;5092858;28;20498;-69
2021/12/25 03:49:34;;;;;;;175.23;93.67;;;;;;;0.65;84.22;99318.59;5091288;28;20449;-70
2021/12/25 03:57:39;;;;;;;163.37;84.30;;;;;;;0.54;84.09;99311.72;5092486;28;20439;-70
2021/12/25 04:00:09;;;;;;;165.10;85.87;;;;;;;0.44;84.16;99316.09;5092295;28;20472;-70
2021/12/25 04:02:43;;;;;;;170.80;86.57;;;;;;;0.52;85.02;99308.41;5092518;28;20492;-71
2021/12/25 04:05:16;;;;;;;168.90;84.00;;;;;;;0.52;84.46;99311.00;5092315;28;20804;-72
2021/12/25 04:10:50;;;;;;;173.13;86.50;;;;;;;0.54;84.43;99311.72;5109453;27;20544;-71
2021/12/25 04:13:18;;;;;;;160.90;78.30;;;;;;;0.64;84.86;99306.50;5110414;28;20440;-69
2021/12/25 04:15:45;;;;;;;164.13;85.53;;;;;;;0.76;84.70;99306.19;5109577;28;20503;-69
2021/12/25 04:18:11;;;;;;;150.57;77.03;;;;;;;0.79;83.43;99311.16;5110018;28;20434;-69
2021/12/25 04:20:41;;;;;;;147.53;72.63;;;;;;;0.86;84.12;99312.22;5109521;28;20472;-68
2021/12/25 04:23:11;;;;;;;157.57;81.03;;;;;;;0.82;83.37;99308.28;5109582;28;20521;-68
2021/12/25 04:25:38;;;;;;;131.93;65.70;;;;;;;0.96;83.59;99333.97;5109633;28;20433;-69
2021/12/25 04:28:13;;;;;;;122.87;62.00;;;;;;;1.02;83.71;99328.16;5109299;28;20429;-69
2021/12/25 04:30:59;;;;;;;103.23;56.27;;;;;;;1.09;83.80;99316.19;5109657;28;20436;-69
2021/12/25 04:50:13;;;;;;;110.07;55.23;;;;;;;1.25;83.11;99329.50;5109057;28;20416;-69
2021/12/25 05:03:44;;;;;;;95.20;51.80;;;;;;;1.45;81.93;99354.66;5108793;28;20403;-69
2021/12/25 05:06:11;;;;;;;95.40;51.63;;;;;;;1.48;81.88;99341.31;5109165;28;20503;-69
2021/12/25 05:08:38;;;;;;;102.70;54.17;;;;;;;1.45;81.34;99349.44;5108481;28;20988;-69
2021/12/25 05:11:05;;;;;;;110.60;57.87;;;;;;;1.34;80.83;99354.81;5108566;28;20482;-69
2021/12/25 05:13:32;;;;;;;107.70;56.33;;;;;;;1.04;81.75;99357.63;5108385;28;20490;-69
2021/12/25 05:16:02;;;;;;;106.23;57.00;;;;;;;0.99;83.17;99344.16;5108448;28;20859;-69
2021/12/25 05:18:29;;;;;;;98.10;52.90;;;;;;;1.04;83.28;99347.19;5108513;28;20440;-69
2021/12/25 05:20:55;;;;;;;100.17;53.97;;;;;;;1.10;82.94;99354.44;5101859;28;20476;-69
2021/12/25 05:23:22;;;;;;;95.80;52.33;;;;;;;0.79;83.10;99363.44;5094602;28;20789;-69
2021/12/25 05:25:50;;;;;;;109.97;54.07;;;;;;;0.85;83.92;99357.63;5094998;28;20495;-69
2021/12/25 05:28:23;;;;;;;108.27;55.17;;;;;;;0.97;84.20;99361.75;5095114;28;20440;-69
2021/12/25 05:30:51;;;;;;;101.60;54.00;;;;;;;0.93;83.35;99370.03;5094832;28;20526;-69
2021/12/25 05:33:20;;;;;;;97.73;53.30;;;;;;;0.96;83.59;99370.56;5094780;28;20443;-70
2021/12/25 05:35:47;;;;;;;97.50;51.40;;;;;;;1.04;84.30;99373.31;5094621;28;20499;-70
2021/12/25 05:38:15;;;;;;;96.90;52.17;;;;;;;1.12;83.77;99360.38;5094700;28;20437;-70
2021/12/25 05:40:42;;;;;;;100.83;53.40;;;;;;;1.20;83.55;99360.50;5094475;28;20468;-69
2021/12/25 05:43:09;;;;;;;99.47;52.37;;;;;;;1.23;81.92;99362.84;5094530;28;20445;-68
2021/12/25 05:45:36;;;;;;;97.10;51.97;;;;;;;1.27;82.38;99355.53;5095372;28;20510;-67
2021/12/25 05:48:02;;;;;;;96.00;52.27;;;;;;;1.25;82.41;99365.28;5094346;28;20441;-68
2021/12/25 05:50:31;;;;;;;131.67;67.87;;;;;;;1.15;82.06;99367.94;5094305;28;20960;-68
2021/12/25 05:52:58;;;;;;;151.03;73.57;;;;;;;1.16;82.16;99366.16;5094859;28;20440;-68
2021/12/25 05:55:25;;;;;;;118.93;64.37;;;;;;;1.17;81.83;99358.16;5094530;28;20436;-68
2021/12/25 05:57:52;;;;;;;130.97;66.53;;;;;;;1.05;82.08;99367.13;5094369;28;20495;-69
2021/12/25 06:00:20;;;;;;;151.97;85.63;;;;;;;0.93;82.58;99365.63;5095177;28;20549;-69
2021/12/25 06:02:47;;;;;;;152.57;82.20;;;;;;;0.97;83.35;99385.28;5093951;28;21053;-69
2021/12/25 06:05:15;;;;;;;139.83;75.23;;;;;;;1.04;82.93;99388.19;5093710;28;20485;-68
2021/12/25 06:07:43;;;;;;;132.13;71.50;;;;;;;0.98;82.71;99389.56;5093780;28;20865;-69
2021/12/25 06:10:11;;;;;;;140.33;73.30;;;;;;;0.96;83.63;99391.50;5093814;28;20475;-69
2021/12/25 06:12:38;;;;;;;141.83;72.87;;;;;;;0.92;83.17;99389.28;5093995;28;20452;-69
2021/12/25 06:15:06;;;;;;;141.07;73.83;;;;;;;0.99;83.22;99393.84;5094092;28;20433;-69
2021/12/25 06:17:33;;;;;;;144.37;77.83;;;;;;;0.99;83.36;99386.00;5093525;28;20498;-69
2021/12/25 06:20:00;;;;;;;138.73;77.07;;;;;;;0.98;83.11;99388.75;5094078;28;20478;-70
2021/12/25 06:22:26;;;;;;;146.53;76.73;;;;;;;0.75;83.16;99398.66;5093346;28;20953;-71
2021/12/25 06:24:55;;;;;;;142.77;77.43;;;;;;;0.67;84.31;99403.72;5093144;28;20947;-70
2021/12/25 06:27:22;;;;;;;134.33;73.30;;;;;;;0.51;84.32;99411.25;5093401;28;20437;-69
2021/12/25 06:29:50;;;;;;;135.30;72.37;;;;;;;0.56;85.02;99411.69;5093334;28;20446;-68
2021/12/25 06:32:17;;;;;;;135.90;69.40;;;;;;;0.73;85.82;99413.63;5092166;28;20928;-67
2021/12/25 06:34:45;;;;;;;141.63;75.63;;;;;;;0.82;85.64;99410.22;5092982;28;20444;-67
2021/12/25 06:37:12;;;;;;;132.87;68.73;;;;;;;0.90;85.63;99406.91;5093411;28;20433;-68
2021/12/25 06:39:40;;;;;;;128.30;66.40;;;;;;;1.00;85.69;99405.94;5092938;28;20472;-69
2021/12/25 06:42:09;;;;;;;118.53;62.20;;;;;;;1.15;85.28;99401.94;5092784;28;20441;-69
2021/12/25 06:44:37;;;;;;;124.03;65.90;;;;;;;1.29;84.62;99398.91;5092782;28;20490;-69
2021/12/25 06:47:04;;;;;;;112.30;58.53;;;;;;;1.42;83.86;99403.84;5093236;28;20443;-69
2021/12/25 06:49:30;;;;;;;106.37;55.63;;;;;;;1.49;83.65;99394.44;5092874;28;20444;-68
2021/12/25 06:51:57;;;;;;;97.70;53.30;;;;;;;1.65;83.47;99400.75;5093238;28;20496;-69
2021/12/25 06:54:24;;;;;;;115.87;62.63;;;;;;;1.73;82.14;99407.88;5092444;28;20466;-68
2021/12/25 06:56:51;;;;;;;119.40;58.00;;;;;;;1.98;89.31;99428.19;5092832;28;20944;-69
2021/12/25 06:59:19;;;;;;;97.27;51.10;;;;;;;2.15;84.68;99412.56;5092293;28;21013;-64
2021/12/25 07:01:45;;;;;;;95.43;51.03;;;;;;;2.30;83.01;99423.38;5090706;28;20490;-68
2021/12/25 07:04:12;;;;;;;92.00;48.83;;;;;;;2.40;82.50;99414.47;5089995;28;20453;-65
2021/12/25 07:06:40;;;;;;;91.83;47.10;;;;;;;2.49;81.27;99416.22;5092381;28;20441;-65
2021/12/25 07:09:07;;;;;;;82.20;46.70;;;;;;;2.61;78.96;99417.66;5092510;28;20553;-64
2021/12/25 07:11:35;;;;;;;86.23;46.73;;;;;;;2.75;79.50;99419.78;5092565;28;20433;-64
2021/12/25 07:14:03;;;;;;;85.27;47.00;;;;;;;2.88;79.23;99428.13;5092594;28;20441;-66
2021/12/25 07:16:33;;;;;;;86.50;46.43;;;;;;;3.01;76.90;99441.69;5092481;28;20437;-66
2021/12/25 07:18:59;;;;;;;89.73;50.40;;;;;;;3.20;77.64;99453.81;5092515;28;20498;-67
2021/12/25 07:21:27;;;;;;;86.07;48.97;;;;;;;3.44;76.51;99454.03;5092864;28;20473;-66
2021/12/25 07:23:54;;;;;;;89.03;48.57;;;;;;;3.71;74.38;99459.16;5092583;28;20436;-66
2021/12/25 07:26:21;;;;;;;81.67;48.03;;;;;;;3.90;75.54;99457.16;5091621;28;20502;-72
2021/12/25 07:28:52;;;;;;;87.40;48.83;;;;;;;4.12;72.90;99472.41;5091653;28;20617;-71
2021/12/25 07:31:21;;;;;;;74.30;44.97;;;;;;;4.18;76.02;99461.28;5091171;28;20251;-73
2021/12/25 07:33:49;;;;;;;72.73;45.77;;;;;;;4.80;74.41;99452.97;5092167;28;20252;-75
2021/12/25 07:36:16;;;;;;;84.97;48.03;;;;;;;5.32;70.02;99470.16;5092190;28;20187;-70
2021/12/25 07:38:44;;;;;;;88.43;49.93;;;;;;;5.49;68.66;99450.78;5091843;28;20240;-71
2021/12/25 07:41:11;;;;;;;88.60;50.17;;;;;;;5.76;68.32;99466.22;5092003;28;20227;-69
2021/12/25 07:43:38;;;;;;;83.90;48.67;;;;;;;6.29;67.15;99480.66;5091077;28;20256;-74
2021/12/25 07:46:04;;;;;;;86.10;49.73;;;;;;;6.62;65.44;99482.19;5091667;28;20617;-71
2021/12/25 07:48:33;;;;;;;78.63;46.83;;;;;;;6.91;69.86;99477.13;5091800;28;20194;-71
2021/12/25 07:51:02;;;;;;;76.17;46.37;;;;;;;7.70;71.51;99480.19;5091317;28;20195;-68
2021/12/25 07:53:30;;;;;;;76.53;47.27;;;;;;;8.51;58.05;99500.44;5090860;28;20202;-69
2021/12/25 07:55:57;;;;;;;78.53;46.80;;;;;;;8.88;56.88;99499.47;5090292;28;20187;-68
2021/12/25 07:58:24;;;;;;;79.87;47.23;;;;;;;9.30;57.55;99494.25;5090619;28;20191;-67
2021/12/25 08:00:51;;;;;;;77.53;46.90;;;;;;;9.76;53.90;99487.59;5090573;28;20272;-70
2021/12/25 08:03:18;;;;;;;78.63;47.13;;;;;;;10.17;51.89;99483.25;5091033;28;20723;-70
2021/12/25 08:05:46;;;;;;;91.33;55.20;;;;;;;10.33;49.82;99483.78;5091804;28;20187;-68
2021/12/25 08:08:14;;;;;;;106.77;63.33;;;;;;;10.50;50.35;99484.28;5091611;28;20195;-67
2021/12/25 08:10:43;;;;;;;100.13;65.57;;;;;;;10.46;48.90;99491.00;5091457;28;20223;-67
2021/12/25 08:13:10;;;;;;;99.43;59.63;;;;;;;10.45;47.64;99487.53;5091194;28;20253;-68
2021/12/25 08:15:37;;;;;;;106.00;64.53;;;;;;;10.61;48.24;99486.38;5091212;28;20203;-69
2021/12/25 08:18:04;;;;;;;104.50;62.87;;;;;;;10.51;48.91;99486.72;5090842;28;20226;-69
2021/12/25 08:20:34;;;;;;;99.77;61.80;;;;;;;10.79;48.53;99486.69;5090901;28;20264;-69
2021/12/25 08:23:01;;;;;;;102.07;61.80;;;;;;;11.11;47.88;99475.34;5091490;28;20230;-70
2021/12/25 08:25:29;;;;;;;100.00;59.47;;;;;;;11.09;48.70;99469.44;5091817;28;20267;-74
2021/12/25 08:27:56;;;;;;;96.67;59.83;;;;;;;11.25;46.94;99468.22;5091495;28;20195;-83
2021/12/25 08:30:26;;;;;;;97.47;57.53;;;;;;;11.34;47.24;99465.19;5091405;28;20203;-73
2021/12/25 08:32:55;;;;;;;82.17;52.67;;;;;;;11.30;46.24;99471.94;5091450;28;20653;-73
2021/12/25 08:35:24;;;;;;;84.17;53.17;;;;;;;11.31;47.29;99465.59;5091391;28;20195;-71
2021/12/25 08:37:51;;;;;;;81.00;52.10;;;;;;;11.47;46.22;99462.56;5090798;28;20226;-74
2021/12/25 08:40:18;;;;;;;77.93;49.33;;;;;;;11.51;44.93;99461.13;5092397;28;20224;-71
2021/12/25 08:42:51;;;;;;;84.63;53.40;;;;;;;11.48;46.25;99463.38;5093506;28;20260;-73
2021/12/25 08:45:40;;;;;;;66.77;44.73;;;;;;;11.57;45.84;99478.97;5091753;28;20596;-72
2021/12/25 08:48:10;;;;;;;66.17;43.07;;;;;;;11.74;45.42;99472.25;5092017;28;20216;-71
2021/12/25 08:50:37;;;;;;;75.93;45.67;;;;;;;11.95;44.95;99472.03;5097127;28;20253;-74
2021/12/25 08:53:04;;;;;;;77.30;48.20;;;;;;;12.12;44.33;99467.13;5119408;28;20192;-73
2021/12/25 08:55:31;;;;;;;82.63;50.10;;;;;;;12.24;44.29;99450.31;5117490;28;20736;-73
2021/12/25 08:57:59;;;;;;;74.33;48.17;;;;;;;12.19;44.21;99447.44;5116213;28;20192;-72
2021/12/25 09:00:26;;;;;;;75.27;47.73;;;;;;;12.41;44.32;99440.84;5114740;28;20214;-74
2021/12/25 09:02:53;;;;;;;77.40;50.47;;;;;;;12.54;42.85;99440.81;5115081;28;20245;-73
2021/12/25 09:05:20;;;;;;;74.83;49.83;;;;;;;12.61;43.78;99438.94;5114851;28;20757;-76
2021/12/25 09:07:47;;;;;;;77.93;51.57;;;;;;;12.78;43.43;99437.44;5109480;28;20258;-76
2021/12/25 09:10:13;;;;;;;78.80;49.87;;;;;;;12.90;43.00;99429.63;5109800;28;20229;-73
2021/12/25 09:12:43;;;;;;;76.93;49.23;;;;;;;13.17;42.56;99423.13;5093432;28;20712;-74
2021/12/25 09:15:12;;;;;;;75.83;47.57;;;;;;;13.45;41.01;99428.91;5093872;28;20247;-73
2021/12/25 09:17:39;;;;;;;72.43;46.87;;;;;;;13.65;41.60;99427.75;5093334;28;20188;-78
2021/12/25 09:20:08;;;;;;;69.03;43.93;;;;;;;13.77;40.73;99433.97;5093475;28;20252;-84
2021/12/25 09:22:35;;;;;;;67.27;43.97;;;;;;;13.80;41.13;99430.09;5093456;28;20241;-80
2021/12/25 09:25:02;;;;;;;62.30;41.37;;;;;;;13.84;39.99;99423.28;5093438;28;20187;-75
2021/12/25 09:27:29;;;;;;;53.13;37.17;;;;;;;13.90;39.90;99417.88;5093359;28;20195;-74
2021/12/25 09:29:55;;;;;;;50.77;37.07;;;;;;;13.20;41.11;99412.88;5093680;28;20257;-79
2021/12/25 09:32:23;;;;;;;55.90;38.03;;;;;;;13.50;41.63;99405.88;5093804;28;20195;-82
2021/12/25 09:34:50;;;;;;;56.50;37.40;;;;;;;13.80;41.17;99401.53;5093542;28;20256;-77
2021/12/25 09:37:18;;;;;;;51.90;37.53;;;;;;;14.04;40.27;99392.66;5093890;28;20187;-81
2021/12/25 09:39:45;;;;;;;56.10;38.23;;;;;;;14.25;40.68;99396.81;5092987;28;20191;-83
2021/12/25 09:42:12;;;;;;;51.23;36.13;;;;;;;14.35;39.75;99384.56;5088094;28;20216;-78
2021/12/25 09:44:39;;;;;;;54.10;39.47;;;;;;;14.10;39.58;99385.63;5072896;28;20191;-75
2021/12/25 09:47:06;;;;;;;55.10;37.40;;;;;;;13.97;40.23;99394.59;5089150;28;20252;-72
2021/12/25 09:49:34;;;;;;;62.13;44.07;;;;;;;13.92;40.21;99373.06;5094284;28;20224;-76
2021/12/25 09:52:02;;;;;;;56.23;40.23;;;;;;;13.93;40.23;99368.56;5092589;28;20272;-72
2021/12/25 09:54:29;;;;;;;55.40;39.73;;;;;;;13.74;40.56;99369.53;5093485;28;20244;-73
2021/12/25 09:56:58;;;;;;;57.83;41.70;;;;;;;13.63;41.30;99367.59;5092724;28;20188;-74
2021/12/25 09:59:25;;;;;;;58.10;39.67;;;;;;;13.59;41.38;99367.22;5092695;28;20191;-73
2021/12/25 10:01:53;;;;;;;60.17;40.13;;;;;;;13.66;41.96;99367.97;5090879;28;20227;-73
2021/12/25 10:04:37;;;;;;;64.00;40.43;;;;;;;13.51;42.22;99361.31;5090827;28;20195;-73
2021/12/25 10:07:16;;;;;;;62.17;40.70;;;;;;;13.65;42.26;99350.34;5091599;28;20183;-74
2021/12/25 10:09:43;;;;;;;61.70;40.17;;;;;;;13.63;42.49;99357.72;5089650;28;20252;-72
2021/12/25 10:12:12;;;;;;;62.90;42.00;;;;;;;13.55;42.28;99355.34;5070453;28;20196;-75
2021/12/25 10:14:41;;;;;;;61.30;42.00;;;;;;;13.54;42.75;99353.72;5070148;28;20577;-72
2021/12/25 10:17:17;;;;;;;63.67;40.70;;;;;;;13.53;42.40;99345.91;5069233;28;20248;-71
2021/12/25 10:20:00;;;;;;;61.67;41.30;;;;;;;13.03;44.03;99339.72;5068545;28;20257;-73
2021/12/25 10:22:27;;;;;;;61.30;38.73;;;;;;;12.80;44.57;99344.78;5070942;28;20231;-69
2021/12/25 10:25:06;;;;;;;53.27;37.80;;;;;;;12.68;45.55;99334.97;5067690;28;20200;-68
2021/12/25 10:27:33;;;;;;;54.03;35.80;;;;;;;12.84;45.31;99335.31;5070491;28;20199;-71
2021/12/25 10:30:01;;;;;;;53.73;35.60;;;;;;;13.05;44.36;99336.84;5071059;28;20192;-71
2021/12/25 10:32:27;;;;;;;57.17;37.40;;;;;;;13.09;44.62;99344.22;5071315;28;20199;-71
2021/12/25 10:34:55;;;;;;;56.33;37.50;;;;;;;13.04;45.06;99336.03;5071391;28;20198;-69
2021/12/25 10:37:23;;;;;;;60.23;39.97;;;;;;;13.10;45.23;99324.50;5071185;28;20196;-70
2021/12/25 10:39:51;;;;;;;59.73;40.33;;;;;;;13.20;44.96;99319.53;5071154;28;20241;-69
2021/12/25 10:42:21;;;;;;;61.30;41.87;;;;;;;13.28;45.33;99332.56;5070746;28;20222;-69
2021/12/25 10:44:49;;;;;;;67.43;42.47;;;;;;;13.21;45.78;99320.31;5070829;28;20195;-69
2021/12/25 10:47:18;;;;;;;55.87;37.37;;;;;;;13.24;45.57;99322.56;5070987;28;20261;-73
2021/12/25 10:49:47;;;;;;;57.27;38.80;;;;;;;13.35;44.93;99313.88;5070685;28;20656;-71
2021/12/25 10:52:20;;;;;;;44.73;32.97;;;;;;;13.38;45.39;99311.56;5071029;28;20341;-74
2021/12/25 10:54:49;;;;;;;46.47;32.67;;;;;;;13.36;44.27;99313.63;5070708;28;20691;-77
2021/12/25 10:57:32;;;;;;;48.40;32.90;;;;;;;13.34;44.53;99310.38;5081012;28;20248;-76
2021/12/25 10:59:59;;;;;;;48.43;32.80;;;;;;;13.30;45.14;99309.16;5110186;28;20654;-74
2021/12/25 11:02:32;;;;;;;48.90;33.57;;;;;;;13.04;46.38;99301.38;5109671;28;20222;-74
2021/12/25 11:04:59;;;;;;;44.13;30.83;;;;;;;13.15;45.91;99292.66;5110261;28;20187;-72
2021/12/25 11:07:27;;;;;;;43.33;29.17;;;;;;;13.05;46.12;99289.66;5111213;28;20187;-73
2021/12/25 11:10:07;;;;;;;41.80;29.50;;;;;;;13.16;45.96;99291.66;5109491;28;20621;-74
2021/12/25 11:12:35;;;;;;;45.43;31.63;;;;;;;13.29;45.82;99286.19;5078489;28;20196;-73
2021/12/25 11:15:19;;;;;;;42.93;28.50;;;;;;;13.06;46.88;99288.63;5063538;28;20257;-72
2021/12/25 11:17:51;;;;;;;39.77;27.37;;;;;;;13.19;46.71;99285.84;5061586;28;20241;-71
2021/12/25 11:20:27;;;;;;;38.00;27.57;;;;;;;13.34;46.27;99280.19;5061267;28;20978;-73
2021/12/25 11:22:59;;;;;;;39.53;28.33;;;;;;;13.38;46.10;99268.88;5069282;28;20191;-72
2021/12/25 11:25:28;;;;;;;37.87;26.37;;;;;;;13.40;46.00;99269.47;5065865;28;20191;-71
2021/12/25 11:27:55;;;;;;;32.63;25.87;;;;;;;13.50;45.57;99261.78;5073316;28;20199;-72
2021/12/25 11:30:25;;;;;;;32.67;24.60;;;;;;;13.61;45.64;99263.75;5081299;28;20191;-73
2021/12/25 11:32:53;;;;;;;34.67;26.27;;;;;;;13.57;45.76;99257.22;5090821;28;20199;-72
2021/12/25 11:35:21;;;;;;;33.90;24.77;;;;;;;13.67;45.43;99257.50;5072057;28;20187;-74
2021/12/25 11:37:49;;;;;;;30.67;23.40;;;;;;;13.68;45.74;99253.00;5068865;28;20192;-72
2021/12/25 11:40:19;;;;;;;28.53;22.53;;;;;;;13.70;45.18;99251.72;5069016;28;20188;-73
2021/12/25 11:42:52;;;;;;;31.80;23.43;;;;;;;13.82;45.43;99252.63;5069803;28;20204;-74
2021/12/25 11:45:23;;;;;;;34.23;24.13;;;;;;;13.67;46.14;99257.50;5068108;28;20569;-73
2021/12/25 11:47:51;;;;;;;24.43;19.93;;;;;;;13.73;45.38;99251.25;5068622;28;20239;-74
2021/12/25 11:50:21;;;;;;;59.03;28.90;;;;;;;13.66;45.54;99245.19;5068310;28;20192;-74
2021/12/25 11:53:06;;;;;;;25.60;18.97;;;;;;;13.57;45.96;99241.19;5066739;28;20218;-72
2021/12/25 11:56:02;;;;;;;26.67;20.07;;;;;;;13.64;45.92;99236.59;5068098;28;20180;-72
2021/12/25 11:58:46;;;;;;;29.97;20.00;;;;;;;13.76;46.31;99223.34;5068321;28;20191;-72
2021/12/25 12:01:32;;;;;;;24.20;18.77;;;;;;;13.85;45.64;99233.47;5068163;28;20204;-72
2021/12/25 12:04:01;;;;;;;24.03;19.40;;;;;;;13.90;45.70;99230.97;5068379;28;20249;-75
2021/12/25 12:07:00;;;;;;;22.43;17.87;;;;;;;13.84;45.47;99229.19;5069369;28;20196;-74
2021/12/25 12:09:31;;;;;;;20.20;16.93;;;;;;;13.76;46.07;99220.66;5069714;28;20273;-73
2021/12/25 12:12:18;;;;;;;21.80;16.73;;;;;;;13.73;45.71;99219.22;5088491;28;20191;-73
2021/12/25 12:14:46;;;;;;;20.60;17.23;;;;;;;13.50;46.32;99213.75;5090413;28;20191;-73
2021/12/25 12:17:28;;;;;;;19.53;16.17;;;;;;;13.52;46.54;99225.00;5090348;28;20259;-74
2021/12/25 12:19:56;;;;;;;18.73;15.83;;;;;;;13.52;46.15;99222.34;5090573;28;20399;-73